Aviation Digital Data Service (ADDS)

Output produced by METARs form (1315 UTC 25 September 2018)
found at http://www.aviationweather.gov/metar/data/
 
LPAR 251300Z 20005KT CAVOK 31/15 Q1018
TAF LPAR 251102Z 2512/2521 VRB02KT CAVOK 
     BECMG 2513/2515 28008KT 
     BECMG 2518/2520 VRB02KT
       
LPBJ 251300Z 18009KT 150V210 9999 FEW037 36/06 Q1019
TAF LPBJ 251102Z 2512/2612 22010KT CAVOK 
     BECMG 2517/2519 33008KT 
     BECMG 2521/2523 VRB02KT 
     BECMG 2608/2610 12010KT
       
LPCS 251300Z 21006KT 170V240 CAVOK 29/14 Q1019
TAF LPCS 251100Z 2512/2521 VRB03KT CAVOK 
     BECMG 2512/2515 23008KT 
     BECMG 2516/2518 28008KT
       
LPFR 251300Z 12013KT CAVOK 28/19 Q1019
TAF LPFR 251100Z 2512/2612 10012KT CAVOK 
     BECMG 2601/2603 10017KT
       
LPFL 251300Z 16013KT 9999 FEW020 24/19 Q1022
LPHR 251300Z 13013KT 9999 FEW016 FEW018TCU 25/19 Q1023
TAF LPHR 251100Z 2512/2521 16010KT 9999 SCT015 
     TEMPO 2512/2521 FEW015 FEW018TCU
       
LPLA 251300Z /////KT 9999 SCT025 25/21 Q1023
TAF LPLA 251103Z 2512/2612 13010KT 9999 SCT025 
     TEMPO 2512/2612 7000 -SHRA FEW018 BKN022 
     PROB40 
     TEMPO 2600/2610 4000 SHRA SCT014 BKN018 FEW020CB
       
LPPT 251300Z 25004KT 190V310 CAVOK 32/15 Q1018
TAF LPPT 251100Z 2512/2618 VRB05KT CAVOK 
     BECMG 2512/2514 22008KT 
     BECMG 2518/2520 28008KT 
     PROB30 2518/2522 31008KT 
     BECMG 2522/2524 VRB03KT 
     TEMPO 2606/2611 11005KT 
     BECMG 2615/2617 23008KT
       
LPMA 251300Z 03015KT 360V060 9999 SCT015 25/18 Q1019
TAF LPMA 251100Z 2512/2612 02012KT 9999 SCT015 
     BECMG 2519/2522 VRB05KT 
     PROB30 
     TEMPO 2522/2606 BKN015 
     TEMPO 2606/2612 02010KT
       
LPMR 251300Z 30010KT CAVOK 30/14 Q1018
TAF LPMR 251101Z 2512/2612 VRB02KT CAVOK 
     BECMG 2514/2516 34008KT 
     BECMG 2518/2520 VRB02KT
       
LPMT 251300Z 26005KT 230V310 CAVOK 31/16 Q1018
TAF LPMT 251101Z 2512/2612 VRB02KT CAVOK 
     BECMG 2513/2515 28010KT 
     BECMG 2521/2523 VRB02KT
       
LPOV 251300Z 29007KT CAVOK 30/09 Q1018
TAF LPOV 251100Z 2512/2612 28005KT CAVOK 
     BECMG 2515/2517 34008KT 
     BECMG 2519/2521 VRB02KT
       
LPPD 251300Z 11012KT 070V130 9999 FEW018 FEW020TCU 24/19 Q1023
TAF LPPD 251100Z 2512/2612 12010KT 9999 SCT020 
     TEMPO 2512/2522 FEW015 BKN040 
     PROB40 
     TEMPO 2522/2612 8000 SHRA BKN015 FEW025TCU
       
LPPR 251300Z 10008KT 050V130 CAVOK 31/06 Q1019
TAF LPPR 251100Z 2512/2612 10012KT CAVOK 
     BECMG 2514/2516 33008KT 
     BECMG 2520/2522 08007KT 
     BECMG 2600/2602 15007KT 
     BECMG 2610/2612 22007KT
       
LPPS 251300Z 02008KT 340V060 9999 FEW015 BKN030 25/17 Q1019
TAF LPPS 251100Z 2512/2618 03010KT 9999 SCT015 SCT030 
     TEMPO 2512/2609 BKN015 
     BECMG 2522/2524 VRB05KT 
     BECMG 2612/2614 36008KT
       
LPAZ 251300Z 12014KT 9999 FEW024 25/18 Q1022
TAF LPAZ 251100Z 2512/2618 10012KT 9999 SCT020 
     TEMPO 2512/2522 FEW018 BKN040 
     PROB30 
     TEMPO 2522/2615 8000 SHRA BKN015 FEW025TCU 
     BECMG 2600/2602 14013KT
       
LPST 251300Z 18008KT 140V200 CAVOK 32/12 Q1018
TAF LPST 251103Z 2512/2521 VRB02KT CAVOK 
     BECMG 2513/2515 24008KT 
     BECMG 2518/2520 VRB02KT